createdAt,value
2017-09-24T00:01:53.164Z,10.40
2017-09-24T00:04:20.743Z,10.40
2017-09-24T00:06:48.343Z,10.40
2017-09-24T00:09:16.679Z,10.50
2017-09-24T00:11:44.319Z,10.50
2017-09-24T00:14:11.922Z,10.50
2017-09-24T00:16:39.498Z,10.60
2017-09-24T00:19:07.114Z,10.50
2017-09-24T00:21:34.866Z,10.40
2017-09-24T00:24:02.446Z,10.50
2017-09-24T00:26:30.017Z,10.50
2017-09-24T00:28:57.670Z,10.50
2017-09-24T00:31:25.299Z,10.40
2017-09-24T00:33:53.678Z,10.40
2017-09-24T00:36:22.016Z,10.30
2017-09-24T00:38:49.606Z,10.30
2017-09-24T00:41:17.179Z,10.30
2017-09-24T00:43:44.814Z,10.30
2017-09-24T00:46:12.391Z,10.30
2017-09-24T00:48:40.009Z,10.30
2017-09-24T00:51:07.720Z,10.30
2017-09-24T00:53:35.971Z,10.30
2017-09-24T00:56:03.557Z,10.30
2017-09-24T00:58:31.153Z,10.30
2017-09-24T01:00:59.611Z,10.30
2017-09-24T01:03:27.274Z,10.30
2017-09-24T01:05:54.879Z,10.30
2017-09-24T01:08:23.219Z,10.10
2017-09-24T01:10:50.783Z,10.10
2017-09-24T01:13:18.437Z,10.00
2017-09-24T01:15:46.001Z,10.00
2017-09-24T01:18:13.599Z,10.10
2017-09-24T01:20:41.201Z,10.10
2017-09-24T01:23:08.863Z,9.90
2017-09-24T01:25:36.421Z,9.90
2017-09-24T01:28:04.787Z,9.90
2017-09-24T01:30:33.150Z,10.00
2017-09-24T01:33:00.793Z,10.00
2017-09-24T01:35:28.445Z,10.00
2017-09-24T01:37:56.856Z,10.10
2017-09-24T01:40:24.459Z,10.10
2017-09-24T01:42:52.780Z,10.00
2017-09-24T01:45:20.417Z,10.00
2017-09-24T01:47:48.045Z,9.90
2017-09-24T01:50:15.659Z,9.90
2017-09-24T01:52:43.249Z,9.80
2017-09-24T01:55:10.899Z,9.80
2017-09-24T01:57:38.468Z,9.70
2017-09-24T02:00:06.132Z,9.70
2017-09-24T02:02:33.741Z,9.60
2017-09-24T02:05:01.337Z,9.60
2017-09-24T02:07:29.026Z,9.60
2017-09-24T02:09:56.733Z,9.50
2017-09-24T02:12:24.364Z,9.40
2017-09-24T02:14:52.109Z,9.40
2017-09-24T02:17:19.684Z,9.40
2017-09-24T02:19:47.298Z,9.40
2017-09-24T02:22:14.852Z,9.40
2017-09-24T02:24:42.457Z,9.40
2017-09-24T02:27:10.019Z,9.40
2017-09-24T02:29:38.376Z,9.40
2017-09-24T02:32:05.951Z,9.40
2017-09-24T02:34:34.000Z,9.40
2017-09-24T02:37:01.608Z,9.50
2017-09-24T02:39:30.034Z,9.60
2017-09-24T02:41:57.608Z,9.50
2017-09-24T02:44:25.228Z,9.60
2017-09-24T02:46:52.818Z,9.60
2017-09-24T02:49:20.394Z,9.50
2017-09-24T02:51:47.987Z,9.50
2017-09-24T02:54:15.588Z,9.50
2017-09-24T02:56:43.184Z,9.50
2017-09-24T02:59:10.759Z,9.60
2017-09-24T03:01:38.355Z,9.60
2017-09-24T03:04:06.706Z,9.40
2017-09-24T03:06:34.376Z,9.40
2017-09-24T03:09:02.133Z,9.50
2017-09-24T03:11:29.689Z,9.40
2017-09-24T03:13:57.265Z,9.40
2017-09-24T03:16:24.838Z,9.40
2017-09-24T03:18:52.440Z,9.40
2017-09-24T03:21:20.008Z,9.40
2017-09-24T03:23:47.628Z,9.30
2017-09-24T03:26:16.344Z,9.30
2017-09-24T03:28:44.761Z,9.30
2017-09-24T03:31:12.331Z,9.30
2017-09-24T03:33:39.903Z,9.30
2017-09-24T03:36:07.499Z,9.40
2017-09-24T03:38:35.146Z,9.50
2017-09-24T03:41:02.746Z,9.40
2017-09-24T03:43:31.086Z,9.40
2017-09-24T03:45:58.655Z,9.40
2017-09-24T03:48:26.303Z,9.40
2017-09-24T03:50:53.970Z,9.50
2017-09-24T03:53:21.569Z,9.40
2017-09-24T03:55:49.146Z,9.50
2017-09-24T03:58:16.728Z,9.50
2017-09-24T04:00:45.553Z,9.50
2017-09-24T04:03:13.145Z,9.50
2017-09-24T04:05:40.721Z,9.60
2017-09-24T04:08:08.333Z,9.60
2017-09-24T04:10:35.972Z,9.50
2017-09-24T04:13:03.559Z,9.40
2017-09-24T04:15:31.137Z,9.40
2017-09-24T04:17:58.772Z,9.30
2017-09-24T04:20:27.138Z,9.30
2017-09-24T04:22:54.841Z,9.30
2017-09-24T04:25:22.429Z,9.30
2017-09-24T04:27:50.104Z,9.20
2017-09-24T04:30:17.979Z,9.10
2017-09-24T04:32:45.595Z,9.10
2017-09-24T04:35:13.165Z,9.10
2017-09-24T04:37:40.754Z,9.10
2017-09-24T04:40:08.412Z,9.10
2017-09-24T04:42:35.992Z,9.10
2017-09-24T04:45:03.597Z,9.10
2017-09-24T04:47:31.953Z,9.20
2017-09-24T04:49:59.666Z,9.20
2017-09-24T04:52:27.242Z,9.30
2017-09-24T04:54:54.858Z,9.30
2017-09-24T04:57:22.445Z,9.30
2017-09-24T04:59:50.779Z,9.40
2017-09-24T05:02:18.513Z,9.40
2017-09-24T05:04:46.112Z,9.50
2017-09-24T05:07:13.713Z,9.50
2017-09-24T05:09:42.087Z,9.50
2017-09-24T05:12:10.447Z,9.50
2017-09-24T05:14:38.005Z,9.50
2017-09-24T05:17:05.620Z,9.50
2017-09-24T05:19:33.272Z,9.50
2017-09-24T05:22:00.861Z,9.60
2017-09-24T05:24:29.419Z,9.70
2017-09-24T05:26:56.996Z,9.70
2017-09-24T05:29:25.344Z,9.80
2017-09-24T05:31:52.933Z,9.80
2017-09-24T05:34:20.564Z,9.80
2017-09-24T05:36:48.140Z,9.80
2017-09-24T05:39:15.732Z,9.80
2017-09-24T05:41:44.098Z,9.80
2017-09-24T05:44:11.829Z,9.80
2017-09-24T05:46:39.390Z,9.90
2017-09-24T05:49:07.005Z,9.90
2017-09-24T05:51:34.576Z,9.90
2017-09-24T05:54:03.017Z,10.00
2017-09-24T05:56:30.585Z,9.90
2017-09-24T05:58:58.189Z,9.90
2017-09-24T06:01:26.530Z,10.00
2017-09-24T06:03:54.154Z,9.90
2017-09-24T06:06:21.740Z,10.00
2017-09-24T06:08:49.296Z,10.00
2017-09-24T06:11:16.895Z,10.00
2017-09-24T06:13:44.479Z,10.00
2017-09-24T06:16:12.120Z,10.10
2017-09-24T06:18:39.709Z,10.10
2017-09-24T06:21:08.081Z,10.10
2017-09-24T06:23:35.717Z,10.10
2017-09-24T06:26:03.475Z,10.20
2017-09-24T06:28:31.106Z,10.20
2017-09-24T06:30:59.450Z,10.30
2017-09-24T06:33:27.009Z,10.30
2017-09-24T06:35:54.598Z,10.40
2017-09-24T06:38:22.974Z,10.50
2017-09-24T06:40:50.597Z,10.50
2017-09-24T06:43:18.183Z,10.50
2017-09-24T06:45:45.774Z,10.50
2017-09-24T06:48:13.395Z,10.60
2017-09-24T06:50:40.979Z,10.70
2017-09-24T06:53:08.622Z,10.70
2017-09-24T06:55:37.901Z,10.80
2017-09-24T06:58:06.283Z,10.90
2017-09-24T07:00:33.988Z,10.90
2017-09-24T07:03:01.573Z,10.90
2017-09-24T07:05:29.171Z,11.00
2017-09-24T07:07:57.520Z,11.10
2017-09-24T07:10:25.150Z,11.00
2017-09-24T07:12:52.730Z,11.10
2017-09-24T07:15:20.337Z,11.20
2017-09-24T07:17:48.687Z,11.30
2017-09-24T07:20:16.283Z,11.30
2017-09-24T07:22:44.690Z,11.40
2017-09-24T07:25:12.287Z,11.40
2017-09-24T07:27:39.848Z,11.50
2017-09-24T07:30:07.456Z,11.60
2017-09-24T07:32:35.843Z,11.70
2017-09-24T07:35:04.390Z,11.80
2017-09-24T07:37:32.001Z,11.70
2017-09-24T07:40:00.415Z,11.90
2017-09-24T07:42:28.004Z,11.90
2017-09-24T07:44:56.125Z,12.00
2017-09-24T07:47:24.514Z,12.20
2017-09-24T07:49:52.133Z,12.20
2017-09-24T07:52:19.719Z,12.20
2017-09-24T07:54:48.174Z,12.40
2017-09-24T07:57:16.489Z,12.40
2017-09-24T07:59:44.995Z,12.50
2017-09-24T08:02:12.599Z,12.50
2017-09-24T08:04:40.203Z,12.60
2017-09-24T08:07:07.832Z,12.60
2017-09-24T08:09:36.220Z,12.90
2017-09-24T08:12:03.863Z,12.90
2017-09-24T08:14:31.476Z,13.00
2017-09-24T08:16:59.036Z,13.10
2017-09-24T08:19:26.630Z,13.10
2017-09-24T08:21:55.037Z,13.30
2017-09-24T08:24:22.614Z,13.20
2017-09-24T08:26:50.230Z,13.40
2017-09-24T08:29:18.752Z,13.50
2017-09-24T08:31:46.347Z,13.50
2017-09-24T08:34:13.937Z,13.70
2017-09-24T08:36:42.290Z,13.90
2017-09-24T08:39:09.890Z,13.90
2017-09-24T08:41:38.260Z,14.10
2017-09-24T08:44:05.876Z,14.10
2017-09-24T08:46:33.463Z,14.20
2017-09-24T08:49:01.065Z,14.30
2017-09-24T08:51:29.439Z,14.40
2017-09-24T08:53:57.814Z,14.50
2017-09-24T08:56:25.392Z,14.50
2017-09-24T08:58:53.735Z,14.80
2017-09-24T09:01:21.333Z,14.80
2017-09-24T09:03:49.719Z,15.30
2017-09-24T09:06:18.099Z,15.60
2017-09-24T09:08:46.505Z,15.90
2017-09-24T09:11:14.147Z,15.90
2017-09-24T09:13:42.507Z,16.40
2017-09-24T09:16:10.098Z,16.40
2017-09-24T09:18:38.516Z,16.60
2017-09-24T09:21:06.094Z,16.50
2017-09-24T09:23:33.957Z,16.70
2017-09-24T09:26:01.926Z,16.90
2017-09-24T09:28:29.799Z,16.90
2017-09-24T09:30:57.597Z,17.00
2017-09-24T09:33:25.539Z,17.30
2017-09-24T09:35:53.179Z,17.50
2017-09-24T09:38:20.789Z,17.70
2017-09-24T09:40:48.394Z,17.80
2017-09-24T09:46:39.396Z,18.10
2017-09-24T09:49:07.788Z,18.80
2017-09-24T09:51:36.128Z,19.00
2017-09-24T09:54:03.717Z,19.00
2017-09-24T09:56:31.842Z,19.40
2017-09-24T09:58:59.489Z,19.80
2017-09-24T10:01:27.063Z,20.10
2017-09-24T10:03:54.632Z,20.50
2017-09-24T10:06:34.072Z,21.10
2017-09-24T10:09:13.424Z,21.30
2017-09-24T10:11:41.022Z,21.90
2017-09-24T10:14:10.366Z,21.80
2017-09-24T10:16:38.021Z,21.80
2017-09-24T10:19:05.600Z,21.80
2017-09-24T10:21:33.208Z,21.90
2017-09-24T10:24:00.786Z,21.80
2017-09-24T10:26:29.154Z,22.70
2017-09-24T10:29:08.664Z,22.70
2017-09-24T10:31:48.122Z,22.80
2017-09-24T10:34:15.721Z,22.80
2017-09-24T10:36:43.334Z,22.80
2017-09-24T10:39:11.578Z,23.10
2017-09-24T10:41:42.726Z,23.20
2017-09-24T10:44:10.320Z,23.30
2017-09-24T10:46:39.627Z,23.60
2017-09-24T10:49:07.473Z,24.30
2017-09-24T10:51:36.291Z,24.80
2017-09-24T10:54:04.531Z,25.10
2017-09-24T10:56:32.224Z,24.50
2017-09-24T10:59:00.160Z,24.40
2017-09-24T11:01:27.745Z,23.80
2017-09-24T11:03:55.361Z,23.70
2017-09-24T11:06:22.979Z,23.70
2017-09-24T11:08:51.176Z,24.00
2017-09-24T11:11:18.762Z,24.00
2017-09-24T11:13:46.339Z,23.60
2017-09-24T11:16:14.719Z,23.10
2017-09-24T11:18:43.090Z,23.20
2017-09-24T11:21:10.674Z,23.10
2017-09-24T11:23:39.057Z,23.10
2017-09-24T11:26:06.677Z,23.00
2017-09-24T11:28:34.291Z,23.40
2017-09-24T11:31:02.683Z,23.90
2017-09-24T11:33:30.289Z,23.90
2017-09-24T11:35:57.898Z,24.00
2017-09-24T11:38:26.221Z,24.60
2017-09-24T11:40:53.815Z,24.60
2017-09-24T11:43:21.408Z,24.70
2017-09-24T11:45:49.853Z,25.40
2017-09-24T11:48:19.236Z,25.40
2017-09-24T11:50:46.835Z,25.50
2017-09-24T11:53:14.415Z,25.60
2017-09-24T11:55:42.010Z,25.80
2017-09-24T11:58:10.273Z,25.60
2017-09-24T12:00:38.674Z,24.90
2017-09-24T12:03:06.290Z,24.90
2017-09-24T12:05:33.880Z,24.50
2017-09-24T12:08:02.935Z,23.90
2017-09-24T12:10:30.689Z,23.90
2017-09-24T12:12:58.290Z,23.80
2017-09-24T12:15:26.620Z,23.60
2017-09-24T12:17:54.214Z,23.60
2017-09-24T12:20:21.792Z,23.80
2017-09-24T12:22:50.193Z,23.90
2017-09-24T12:25:17.787Z,24.00
2017-09-24T12:27:45.354Z,24.10
2017-09-24T12:30:12.937Z,24.60
2017-09-24T12:32:42.033Z,24.20
2017-09-24T12:35:09.802Z,24.10
2017-09-24T12:37:37.391Z,23.70
2017-09-24T12:40:04.963Z,23.60
2017-09-24T12:42:32.614Z,23.40
2017-09-24T12:45:00.373Z,23.50
2017-09-24T12:47:27.971Z,23.90
2017-09-24T12:49:55.568Z,24.10
2017-09-24T12:52:23.201Z,24.20
2017-09-24T12:54:50.811Z,24.40
2017-09-24T12:57:18.410Z,24.60
2017-09-24T12:59:45.979Z,24.90
2017-09-24T13:02:14.510Z,24.90
2017-09-24T13:04:42.238Z,24.80
2017-09-24T13:07:09.841Z,24.70
2017-09-24T13:09:38.198Z,24.20
2017-09-24T13:12:05.797Z,24.20
2017-09-24T13:14:33.514Z,23.90
2017-09-24T13:17:01.162Z,23.20
2017-09-24T13:19:28.757Z,22.60
2017-09-24T13:21:56.311Z,22.40
2017-09-24T13:24:23.958Z,22.30
2017-09-24T13:26:51.520Z,22.40
2017-09-24T13:29:19.120Z,22.40
2017-09-24T13:31:46.699Z,22.40
2017-09-24T13:34:14.391Z,22.40
2017-09-24T13:36:41.965Z,22.50
2017-09-24T13:39:09.564Z,22.50
2017-09-24T13:41:37.129Z,22.50
2017-09-24T13:44:04.782Z,22.40
2017-09-24T13:46:32.359Z,22.30
2017-09-24T13:49:00.049Z,22.10
2017-09-24T13:51:28.398Z,21.70
2017-09-24T13:53:56.161Z,21.70
2017-09-24T13:56:23.753Z,21.60
2017-09-24T13:58:51.363Z,21.60
2017-09-24T14:01:18.955Z,21.50
2017-09-24T14:03:46.641Z,21.50
2017-09-24T14:06:14.250Z,21.50
2017-09-24T14:08:41.817Z,21.50
2017-09-24T14:11:10.371Z,21.60
2017-09-24T14:13:38.782Z,21.40
2017-09-24T14:16:06.417Z,21.40
2017-09-24T14:18:34.767Z,21.30
2017-09-24T14:21:02.384Z,21.30
2017-09-24T14:23:30.712Z,21.40
2017-09-24T14:25:58.432Z,21.40
2017-09-24T14:28:26.839Z,21.30
2017-09-24T14:30:54.427Z,21.30
2017-09-24T14:33:22.053Z,21.20
2017-09-24T14:35:49.646Z,21.20
2017-09-24T14:38:17.237Z,20.90
2017-09-24T14:40:45.623Z,20.70
2017-09-24T14:43:13.199Z,20.70
2017-09-24T14:45:41.578Z,20.60
2017-09-24T14:48:09.284Z,20.50
2017-09-24T14:50:36.933Z,20.60
2017-09-24T14:53:06.166Z,20.60
2017-09-24T14:55:33.766Z,20.60
2017-09-24T14:58:01.355Z,20.50
2017-09-24T15:00:29.696Z,20.20
2017-09-24T15:02:57.374Z,20.20
2017-09-24T15:05:24.952Z,20.10
2017-09-24T15:07:52.545Z,20.00
2017-09-24T15:10:20.241Z,20.10
2017-09-24T15:12:47.853Z,20.00
2017-09-24T15:15:15.544Z,20.00
2017-09-24T15:17:43.143Z,20.00
2017-09-24T15:20:10.830Z,20.00
2017-09-24T15:22:38.482Z,19.90
2017-09-24T15:25:06.099Z,19.80
2017-09-24T15:27:34.483Z,19.80
2017-09-24T15:30:02.832Z,19.80
2017-09-24T15:32:30.479Z,19.80
2017-09-24T15:34:58.157Z,19.70
2017-09-24T15:37:25.769Z,19.70
2017-09-24T15:39:53.352Z,19.60
2017-09-24T15:42:21.020Z,19.50
2017-09-24T15:44:48.614Z,19.50
2017-09-24T15:47:16.216Z,19.50
2017-09-24T15:49:44.609Z,19.30
2017-09-24T15:52:13.123Z,19.30
2017-09-24T15:54:40.790Z,19.40
2017-09-24T15:57:08.501Z,19.40
2017-09-24T15:59:36.905Z,19.40
2017-09-24T16:02:04.518Z,19.30
2017-09-24T16:04:32.148Z,19.30
2017-09-24T16:06:59.787Z,19.20
2017-09-24T16:09:28.137Z,19.10
2017-09-24T16:11:55.788Z,19.10
2017-09-24T16:14:23.385Z,19.00
2017-09-24T16:16:51.270Z,18.90
2017-09-24T16:19:19.723Z,18.70
2017-09-24T16:21:47.461Z,18.70
2017-09-24T16:24:15.059Z,18.70
2017-09-24T16:26:42.752Z,18.60
2017-09-24T16:29:11.136Z,18.50
2017-09-24T16:31:39.476Z,18.50
2017-09-24T16:34:07.075Z,18.50
2017-09-24T16:36:35.427Z,18.40
2017-09-24T16:39:03.054Z,18.40
2017-09-24T16:41:32.006Z,18.40
2017-09-24T16:43:59.609Z,18.30
2017-09-24T16:46:27.287Z,18.30
2017-09-24T16:48:54.856Z,18.30
2017-09-24T16:51:22.464Z,18.30
2017-09-24T16:53:50.222Z,18.20
2017-09-24T16:56:18.622Z,18.20
2017-09-24T16:58:46.298Z,18.20
2017-09-24T17:01:14.007Z,18.10
2017-09-24T17:03:43.283Z,18.10
2017-09-24T17:06:10.870Z,18.00
2017-09-24T17:08:38.453Z,18.00
2017-09-24T17:11:06.033Z,17.80
2017-09-24T17:13:33.782Z,17.70
2017-09-24T17:16:01.455Z,17.50
2017-09-24T17:18:29.038Z,17.40
2017-09-24T17:20:56.666Z,17.20
2017-09-24T17:23:24.277Z,17.10
2017-09-24T17:25:55.074Z,17.10
2017-09-24T17:28:22.800Z,17.00
2017-09-24T17:30:51.143Z,16.70
2017-09-24T17:33:18.717Z,16.70
2017-09-24T17:35:47.277Z,16.40
2017-09-24T17:38:14.884Z,16.40
2017-09-24T17:40:43.231Z,16.40
2017-09-24T17:43:10.980Z,16.30
2017-09-24T17:45:38.611Z,16.30
2017-09-24T17:48:06.958Z,16.20
2017-09-24T17:50:34.533Z,16.20
2017-09-24T17:53:02.173Z,16.20
2017-09-24T17:55:29.788Z,16.10
2017-09-24T17:57:58.148Z,16.00
2017-09-24T18:00:25.710Z,16.00
2017-09-24T18:02:53.333Z,15.90
2017-09-24T18:05:20.901Z,15.80
2017-09-24T18:07:48.506Z,15.80
2017-09-24T18:10:16.107Z,15.80
2017-09-24T18:12:43.752Z,15.80
2017-09-24T18:15:12.105Z,15.70
2017-09-24T18:17:41.226Z,15.60
2017-09-24T18:20:09.605Z,15.60
2017-09-24T18:22:37.976Z,15.60
2017-09-24T18:25:06.358Z,15.60
2017-09-24T18:27:33.919Z,15.60
2017-09-24T18:30:01.497Z,15.60
2017-09-24T18:32:29.215Z,15.60
2017-09-24T18:34:56.882Z,15.60
2017-09-24T18:37:24.537Z,15.60
2017-09-24T18:39:52.141Z,15.60
2017-09-24T18:42:19.834Z,15.60
2017-09-24T18:44:48.179Z,15.60
2017-09-24T18:47:15.750Z,15.60
2017-09-24T18:49:43.360Z,15.50
2017-09-24T18:52:11.717Z,15.50
2017-09-24T18:54:39.323Z,15.50
2017-09-24T18:57:07.686Z,15.40
2017-09-24T18:59:36.063Z,15.40
2017-09-24T19:02:04.436Z,15.30
2017-09-24T19:04:32.869Z,15.30
2017-09-24T19:07:00.463Z,15.30
2017-09-24T19:09:28.057Z,15.30
2017-09-24T19:11:56.440Z,15.20
2017-09-24T19:14:24.013Z,15.20
2017-09-24T19:16:51.573Z,15.10
2017-09-24T19:19:19.948Z,15.10
2017-09-24T19:21:48.317Z,15.00
2017-09-24T19:24:16.720Z,15.00
2017-09-24T19:26:45.085Z,15.00
2017-09-24T19:29:13.438Z,15.00
2017-09-24T19:31:41.047Z,15.00
2017-09-24T19:34:08.617Z,14.90
2017-09-24T19:36:36.312Z,14.90
2017-09-24T19:39:03.906Z,14.90
2017-09-24T19:41:31.556Z,14.80
2017-09-24T19:43:59.219Z,14.80
2017-09-24T19:46:26.803Z,14.70
2017-09-24T19:48:54.418Z,14.70
2017-09-24T19:51:22.100Z,14.70
2017-09-24T19:53:49.713Z,14.70
2017-09-24T19:56:17.299Z,14.60
2017-09-24T19:58:45.644Z,14.60
2017-09-24T20:01:14.753Z,14.60
2017-09-24T20:03:42.330Z,14.50
2017-09-24T20:06:10.700Z,14.50
2017-09-24T20:08:38.413Z,14.50
2017-09-24T20:11:06.267Z,14.50
2017-09-24T20:13:33.877Z,14.50
2017-09-24T20:16:01.452Z,14.50
2017-09-24T20:18:29.043Z,14.50
2017-09-24T20:20:57.377Z,14.50
2017-09-24T20:23:25.035Z,14.50
2017-09-24T20:25:52.648Z,14.50
2017-09-24T20:28:20.224Z,14.40
2017-09-24T20:30:48.590Z,14.40
2017-09-24T20:33:17.683Z,14.40
2017-09-24T20:35:45.448Z,14.40
2017-09-24T20:38:13.039Z,14.30
2017-09-24T20:40:41.358Z,14.30
2017-09-24T20:43:09.002Z,14.30
2017-09-24T20:45:36.577Z,14.30
2017-09-24T20:48:04.137Z,14.20
2017-09-24T20:50:31.732Z,14.10
2017-09-24T20:52:59.304Z,14.10
2017-09-24T20:55:27.047Z,14.00
2017-09-24T20:57:54.716Z,14.00
2017-09-24T21:00:22.305Z,14.00
2017-09-24T21:02:49.895Z,14.00
2017-09-24T21:05:18.253Z,14.10
2017-09-24T21:07:45.889Z,14.10
2017-09-24T21:10:13.466Z,14.10
2017-09-24T21:12:41.031Z,14.00
2017-09-24T21:15:08.646Z,14.00
2017-09-24T21:17:37.029Z,13.90
2017-09-24T21:20:05.422Z,13.90
2017-09-24T21:22:33.005Z,13.90
2017-09-24T21:25:00.560Z,13.90
2017-09-24T21:27:28.179Z,13.80
2017-09-24T21:29:55.775Z,13.80
2017-09-24T21:32:24.169Z,13.80
2017-09-24T21:34:51.753Z,13.80
2017-09-24T21:37:19.324Z,13.80
2017-09-24T21:39:46.983Z,13.80
2017-09-24T21:42:15.353Z,13.70
2017-09-24T21:44:42.937Z,13.70
2017-09-24T21:47:10.515Z,13.70
2017-09-24T21:49:38.099Z,13.70
2017-09-24T21:52:06.484Z,13.60
2017-09-24T21:54:34.078Z,13.60
2017-09-24T21:57:01.672Z,13.60
2017-09-24T21:59:29.333Z,13.50
2017-09-24T22:01:56.921Z,13.60
2017-09-24T22:04:24.529Z,13.60
2017-09-24T22:06:52.886Z,13.40
2017-09-24T22:09:20.493Z,13.40
2017-09-24T22:11:48.091Z,13.40
2017-09-24T22:14:15.680Z,13.40
2017-09-24T22:16:43.264Z,13.40
2017-09-24T22:19:12.284Z,13.50
2017-09-24T22:21:39.965Z,13.40
2017-09-24T22:24:07.570Z,13.50
2017-09-24T22:26:35.174Z,13.50
2017-09-24T22:29:03.511Z,13.50
2017-09-24T22:31:31.095Z,13.50
2017-09-24T22:33:59.507Z,13.50
2017-09-24T22:36:27.093Z,13.60
2017-09-24T22:38:54.687Z,13.50
2017-09-24T22:41:22.252Z,13.50
2017-09-24T22:43:50.188Z,13.50
2017-09-24T22:46:17.767Z,13.50
2017-09-24T22:48:45.348Z,13.50
2017-09-24T22:51:13.698Z,13.60
2017-09-24T22:53:41.288Z,13.60
2017-09-24T22:56:08.913Z,13.60
2017-09-24T22:58:36.490Z,13.60
2017-09-24T23:01:04.071Z,13.70
2017-09-24T23:03:31.793Z,13.70
2017-09-24T23:05:59.513Z,13.70
2017-09-24T23:08:27.111Z,13.70
2017-09-24T23:10:55.451Z,13.70
2017-09-24T23:13:24.004Z,13.80
2017-09-24T23:15:51.682Z,13.80
2017-09-24T23:18:20.115Z,13.80
2017-09-24T23:20:47.736Z,13.80
2017-09-24T23:23:15.311Z,13.80
2017-09-24T23:25:42.917Z,13.80
2017-09-24T23:28:11.349Z,13.90
2017-09-24T23:30:38.973Z,13.90
2017-09-24T23:33:07.301Z,14.00
2017-09-24T23:35:34.873Z,14.00
2017-09-24T23:38:02.467Z,14.00
2017-09-24T23:40:30.061Z,14.10
2017-09-24T23:42:57.663Z,14.10
2017-09-24T23:45:25.258Z,14.20
2017-09-24T23:47:52.863Z,14.20
2017-09-24T23:50:20.432Z,14.20
2017-09-24T23:52:48.041Z,14.20
2017-09-24T23:55:15.628Z,14.20
2017-09-24T23:57:44.007Z,14.20
